Погода Старскоена 2 недели

Тверская область, Россия

22 мая-04 июня
  • 22мая
    Сегодня
    +9°
    +23°
    Ясно и безоблачно
    ВремяПогодаТемператураВлажностьДавлениеВетер, м/сВероятность осадков
    00:00Ясно и безоблачно+12°C90 %744 мм1.4 м/с2 %
    03:00Ясно и безоблачно+10°C91 %744 мм2.3 м/с2 %
    06:00Ясно и безоблачно+11°C74 %745 мм2.7 м/с2 %
    09:00Ясно и безоблачно+17°C63 %746 мм2.5 м/с2 %
    12:00Ясно и безоблачно+22°C46 %746 мм3.6 м/с2 %
    15:00Ясно и безоблачно+22°C39 %745 мм4.1 м/с3 %
    18:00Ясно и безоблачно+22°C38 %746 мм4.3 м/с5 %
    21:00Ясно и безоблачно+16°C47 %746 мм4.1 м/с2 %
  • 23мая
    Четверг
    +7°
    +21°
    Ясно и безоблачно
    ВремяПогодаТемператураВлажностьДавлениеВетер, м/сВероятность осадков
    00:00Ясно и безоблачно+12°C50 %747 мм4.0 м/с2 %
    03:00Ясно и безоблачно+10°C58 %748 мм3.9 м/с2 %
    06:00Ясно и безоблачно+10°C63 %749 мм3.7 м/с2 %
    09:00Ясно и безоблачно+15°C50 %750 мм3.9 м/с2 %
    12:00Ясно и безоблачно+20°C36 %750 мм4.8 м/с1 %
    15:00Ясно и безоблачно+21°C32 %750 мм4.3 м/с1 %
    18:00Ясно и безоблачно+20°C36 %750 мм4.4 м/с2 %
    21:00Ясно и безоблачно+15°C51 %751 мм3.0 м/с2 %
  • 24мая
    Пятница
    +6°
    +21°
    Ясно и безоблачно
    ВремяПогодаТемператураВлажностьДавлениеВетер, м/сВероятность осадков
    00:00Ясно и безоблачно+11°C58 %752 мм3.2 м/с2 %
    03:00Ясно и безоблачно+8°C62 %752 мм2.8 м/с2 %
    06:00Практически безоблачно+8°C64 %753 мм2.8 м/с2 %
    09:00Ясно и безоблачно+14°C43 %754 мм3.9 м/с2 %
    12:00Ясно и безоблачно+18°C33 %754 мм4.4 м/с2 %
    15:00Ясно и безоблачно+20°C29 %753 мм4.0 м/с2 %
    18:00Ясно и безоблачно+20°C33 %752 мм3.8 м/с2 %
    21:00Ясно и безоблачно+15°C52 %752 мм2.8 м/с2 %
  • 25мая
    Суббота
    +8°
    +23°
    Ясно и безоблачно
    ВремяПогодаТемператураВлажностьДавлениеВетер, м/сВероятность осадков
    00:00Ясно и безоблачно+10°C64 %752 мм2.8 м/с2 %
    03:00Ясно и безоблачно+8°C73 %752 мм2.4 м/с2 %
    06:00Ясно и безоблачно+8°C75 %752 мм2.5 м/с2 %
    09:00Ясно и безоблачно+16°C55 %752 мм2.1 м/с2 %
    12:00Ясно и безоблачно+21°C40 %751 мм2.7 м/с2 %
    15:00Ясно и безоблачно+22°C35 %750 мм2.8 м/с2 %
    18:00Ясно и безоблачно+23°C37 %749 мм2.3 м/с2 %
    21:00Ясно и безоблачно+17°C59 %748 мм1.9 м/с2 %
  • 26мая
    Воскресенье
    +11°
    +25°
    Облачно с прояснениями
    ВремяПогодаТемператураВлажностьДавлениеВетер, м/сВероятность осадков
    00:00Небольшая облачность+13°C65 %748 мм2.8 м/с2 %
    03:00Практически безоблачно+10°C75 %748 мм2.0 м/с2 %
    06:00Ясно и безоблачно+11°C78 %748 мм2.3 м/с2 %
    09:00Ясно и безоблачно+19°C59 %748 мм1.6 м/с2 %
    12:00Облачно с прояснениями+24°C37 %748 мм1.5 м/с7 %
    15:00Облачно с прояснениями+24°C38 %747 мм1.9 м/с19 %
    18:00Облачно с прояснениями+24°C45 %747 мм2.6 м/с32 %
    21:00Ясно и безоблачно+19°C71 %747 мм1.8 м/с15 %
Мы используем cookies
Соглашаюсь